sensor_id;sensor_type;location;lat;lon;timestamp;temperature;humidity
49777;DHT22;35673;51.482;7.436;2023-03-31T00:02:08;11.90;99.90
49777;DHT22;35673;51.482;7.436;2023-03-31T00:04:40;12.00;99.90
49777;DHT22;35673;51.482;7.436;2023-03-31T00:07:13;12.00;99.90
49777;DHT22;35673;51.482;7.436;2023-03-31T00:09:39;11.80;99.90
49777;DHT22;35673;51.482;7.436;2023-03-31T00:12:06;11.80;99.90
49777;DHT22;35673;51.482;7.436;2023-03-31T00:14:31;11.80;99.90
49777;DHT22;35673;51.482;7.436;2023-03-31T00:16:57;11.80;99.90
49777;DHT22;35673;51.482;7.436;2023-03-31T00:19:22;11.80;99.90
49777;DHT22;35673;51.482;7.436;2023-03-31T00:21:48;11.80;99.90
49777;DHT22;35673;51.482;7.436;2023-03-31T00:24:15;11.70;99.90
49777;DHT22;35673;51.482;7.436;2023-03-31T00:26:41;11.80;99.90
49777;DHT22;35673;51.482;7.436;2023-03-31T00:29:07;11.70;99.90
49777;DHT22;35673;51.482;7.436;2023-03-31T00:31:33;11.60;99.90
49777;DHT22;35673;51.482;7.436;2023-03-31T00:33:59;11.60;99.90
49777;DHT22;35673;51.482;7.436;2023-03-31T00:36:24;11.60;99.90
49777;DHT22;35673;51.482;7.436;2023-03-31T00:38:53;11.70;99.90
49777;DHT22;35673;51.482;7.436;2023-03-31T00:41:20;11.70;99.90
49777;DHT22;35673;51.482;7.436;2023-03-31T00:46:33;11.60;99.90
49777;DHT22;35673;51.482;7.436;2023-03-31T00:49:01;11.60;99.90
49777;DHT22;35673;51.482;7.436;2023-03-31T00:51:27;11.60;99.90
49777;DHT22;35673;51.482;7.436;2023-03-31T00:53:55;11.60;99.90
49777;DHT22;35673;51.482;7.436;2023-03-31T00:56:24;11.60;99.90
49777;DHT22;35673;51.482;7.436;2023-03-31T00:58:50;11.70;99.90
49777;DHT22;35673;51.482;7.436;2023-03-31T01:01:19;11.60;99.90
49777;DHT22;35673;51.482;7.436;2023-03-31T01:03:45;11.60;99.90
49777;DHT22;35673;51.482;7.436;2023-03-31T01:06:12;11.60;99.90
49777;DHT22;35673;51.482;7.436;2023-03-31T01:08:39;11.60;99.90
49777;DHT22;35673;51.482;7.436;2023-03-31T01:11:05;11.60;99.90
49777;DHT22;35673;51.482;7.436;2023-03-31T01:13:33;11.60;99.90
49777;DHT22;35673;51.482;7.436;2023-03-31T01:15:59;11.70;99.90
49777;DHT22;35673;51.482;7.436;2023-03-31T01:18:25;11.60;99.90
49777;DHT22;35673;51.482;7.436;2023-03-31T01:26:21;11.50;99.90
49777;DHT22;35673;51.482;7.436;2023-03-31T01:39:12;11.40;99.90
49777;DHT22;35673;51.482;7.436;2023-03-31T01:41:45;11.40;99.90
49777;DHT22;35673;51.482;7.436;2023-03-31T01:46:52;11.30;99.90
49777;DHT22;35673;51.482;7.436;2023-03-31T01:49:26;11.30;99.90
49777;DHT22;35673;51.482;7.436;2023-03-31T01:52:17;11.30;99.90
49777;DHT22;35673;51.482;7.436;2023-03-31T01:54:46;11.40;99.90
49777;DHT22;35673;51.482;7.436;2023-03-31T01:57:22;11.40;99.90
49777;DHT22;35673;51.482;7.436;2023-03-31T01:59:51;11.40;99.90
49777;DHT22;35673;51.482;7.436;2023-03-31T02:02:19;11.40;99.90
49777;DHT22;35673;51.482;7.436;2023-03-31T02:04:47;11.40;99.90
49777;DHT22;35673;51.482;7.436;2023-03-31T02:07:14;11.40;99.90
49777;DHT22;35673;51.482;7.436;2023-03-31T02:09:43;11.40;99.90
49777;DHT22;35673;51.482;7.436;2023-03-31T02:12:10;11.40;99.90
49777;DHT22;35673;51.482;7.436;2023-03-31T02:14:36;11.40;99.90
49777;DHT22;35673;51.482;7.436;2023-03-31T02:17:03;11.40;99.90
49777;DHT22;35673;51.482;7.436;2023-03-31T02:19:37;11.40;99.90
49777;DHT22;35673;51.482;7.436;2023-03-31T02:22:04;11.40;99.90
49777;DHT22;35673;51.482;7.436;2023-03-31T02:24:30;11.40;99.90
49777;DHT22;35673;51.482;7.436;2023-03-31T02:27:02;11.40;99.90
49777;DHT22;35673;51.482;7.436;2023-03-31T02:29:30;11.30;99.90
49777;DHT22;35673;51.482;7.436;2023-03-31T02:31:59;11.30;99.90
49777;DHT22;35673;51.482;7.436;2023-03-31T02:34:25;11.40;99.90
49777;DHT22;35673;51.482;7.436;2023-03-31T02:36:51;11.30;99.90
49777;DHT22;35673;51.482;7.436;2023-03-31T02:39:18;11.30;99.90
49777;DHT22;35673;51.482;7.436;2023-03-31T02:41:44;11.30;99.90
49777;DHT22;35673;51.482;7.436;2023-03-31T02:44:10;11.30;99.90
49777;DHT22;35673;51.482;7.436;2023-03-31T02:46:35;11.30;99.90
49777;DHT22;35673;51.482;7.436;2023-03-31T02:49:01;11.40;99.90
49777;DHT22;35673;51.482;7.436;2023-03-31T02:51:32;11.40;99.90
49777;DHT22;35673;51.482;7.436;2023-03-31T02:59:14;11.20;99.90
49777;DHT22;35673;51.482;7.436;2023-03-31T03:04:19;11.20;99.90
49777;DHT22;35673;51.482;7.436;2023-03-31T03:09:55;11.20;99.90
49777;DHT22;35673;51.482;7.436;2023-03-31T03:12:24;11.20;99.90
49777;DHT22;35673;51.482;7.436;2023-03-31T03:14:52;11.10;99.90
49777;DHT22;35673;51.482;7.436;2023-03-31T03:17:31;11.10;99.90
49777;DHT22;35673;51.482;7.436;2023-03-31T03:19:59;11.10;99.90
49777;DHT22;35673;51.482;7.436;2023-03-31T03:22:25;11.10;99.90
49777;DHT22;35673;51.482;7.436;2023-03-31T03:24:51;11.10;99.90
49777;DHT22;35673;51.482;7.436;2023-03-31T03:27:16;11.10;99.90
49777;DHT22;35673;51.482;7.436;2023-03-31T03:29:42;11.10;99.90
49777;DHT22;35673;51.482;7.436;2023-03-31T03:32:08;11.20;99.90
49777;DHT22;35673;51.482;7.436;2023-03-31T03:34:34;11.10;99.90
49777;DHT22;35673;51.482;7.436;2023-03-31T03:36:59;11.10;99.90
49777;DHT22;35673;51.482;7.436;2023-03-31T03:39:25;11.10;99.90
49777;DHT22;35673;51.482;7.436;2023-03-31T03:41:50;11.10;99.90
49777;DHT22;35673;51.482;7.436;2023-03-31T03:44:16;11.10;99.90
49777;DHT22;35673;51.482;7.436;2023-03-31T03:46:41;11.10;99.90
49777;DHT22;35673;51.482;7.436;2023-03-31T03:49:07;11.20;99.90
49777;DHT22;35673;51.482;7.436;2023-03-31T03:51:32;11.20;99.90
49777;DHT22;35673;51.482;7.436;2023-03-31T03:53:57;11.20;99.90
49777;DHT22;35673;51.482;7.436;2023-03-31T03:56:23;11.20;99.90
49777;DHT22;35673;51.482;7.436;2023-03-31T03:58:52;11.20;99.90
49777;DHT22;35673;51.482;7.436;2023-03-31T04:01:17;11.20;99.90
49777;DHT22;35673;51.482;7.436;2023-03-31T04:03:43;11.10;99.90
49777;DHT22;35673;51.482;7.436;2023-03-31T04:06:08;11.20;99.90
49777;DHT22;35673;51.482;7.436;2023-03-31T04:08:34;11.20;99.90
49777;DHT22;35673;51.482;7.436;2023-03-31T04:11:00;11.20;99.90
49777;DHT22;35673;51.482;7.436;2023-03-31T04:13:25;11.30;99.90
49777;DHT22;35673;51.482;7.436;2023-03-31T04:15:51;11.30;99.90
49777;DHT22;35673;51.482;7.436;2023-03-31T04:18:16;11.30;99.90
49777;DHT22;35673;51.482;7.436;2023-03-31T04:20:51;11.20;99.90
49777;DHT22;35673;51.482;7.436;2023-03-31T04:23:32;11.20;99.90
49777;DHT22;35673;51.482;7.436;2023-03-31T04:25:57;11.30;99.90
49777;DHT22;35673;51.482;7.436;2023-03-31T04:28:23;11.30;99.90
49777;DHT22;35673;51.482;7.436;2023-03-31T04:30:53;11.20;99.90
49777;DHT22;35673;51.482;7.436;2023-03-31T04:33:19;11.20;99.90
49777;DHT22;35673;51.482;7.436;2023-03-31T04:35:45;11.20;99.90
49777;DHT22;35673;51.482;7.436;2023-03-31T04:38:23;11.30;99.90
49777;DHT22;35673;51.482;7.436;2023-03-31T04:40:51;11.20;99.90
49777;DHT22;35673;51.482;7.436;2023-03-31T04:43:18;11.20;99.90
49777;DHT22;35673;51.482;7.436;2023-03-31T04:45:44;11.30;99.90
49777;DHT22;35673;51.482;7.436;2023-03-31T04:48:09;11.20;99.90
49777;DHT22;35673;51.482;7.436;2023-03-31T04:50:35;11.30;99.90
49777;DHT22;35673;51.482;7.436;2023-03-31T04:53:01;11.30;99.90
49777;DHT22;35673;51.482;7.436;2023-03-31T04:55:36;11.30;99.90
49777;DHT22;35673;51.482;7.436;2023-03-31T04:58:02;11.30;99.90
49777;DHT22;35673;51.482;7.436;2023-03-31T05:00:27;11.30;99.90
49777;DHT22;35673;51.482;7.436;2023-03-31T05:02:54;11.30;99.90
49777;DHT22;35673;51.482;7.436;2023-03-31T05:05:19;11.20;99.90
49777;DHT22;35673;51.482;7.436;2023-03-31T05:07:45;11.20;99.90
49777;DHT22;35673;51.482;7.436;2023-03-31T05:10:11;11.20;99.90
49777;DHT22;35673;51.482;7.436;2023-03-31T05:12:36;11.20;99.90
49777;DHT22;35673;51.482;7.436;2023-03-31T05:15:03;11.20;99.90
49777;DHT22;35673;51.482;7.436;2023-03-31T05:17:32;11.20;99.90
49777;DHT22;35673;51.482;7.436;2023-03-31T05:19:58;11.20;99.90
49777;DHT22;35673;51.482;7.436;2023-03-31T05:22:24;11.10;99.90
49777;DHT22;35673;51.482;7.436;2023-03-31T05:24:49;11.20;99.90
49777;DHT22;35673;51.482;7.436;2023-03-31T05:27:15;11.10;99.90
49777;DHT22;35673;51.482;7.436;2023-03-31T05:29:40;11.10;99.90
49777;DHT22;35673;51.482;7.436;2023-03-31T05:32:06;11.10;99.90
49777;DHT22;35673;51.482;7.436;2023-03-31T05:34:31;11.10;99.90
49777;DHT22;35673;51.482;7.436;2023-03-31T05:36:57;11.10;99.90
49777;DHT22;35673;51.482;7.436;2023-03-31T05:39:23;11.00;99.90
49777;DHT22;35673;51.482;7.436;2023-03-31T05:41:48;11.00;99.90
49777;DHT22;35673;51.482;7.436;2023-03-31T05:44:14;11.00;99.90
49777;DHT22;35673;51.482;7.436;2023-03-31T05:46:40;11.00;99.90
49777;DHT22;35673;51.482;7.436;2023-03-31T05:49:06;11.00;99.90
49777;DHT22;35673;51.482;7.436;2023-03-31T05:51:31;11.00;99.90
49777;DHT22;35673;51.482;7.436;2023-03-31T05:53:57;11.00;99.90
49777;DHT22;35673;51.482;7.436;2023-03-31T05:56:22;11.00;99.90
49777;DHT22;35673;51.482;7.436;2023-03-31T05:58:48;11.00;99.90
49777;DHT22;35673;51.482;7.436;2023-03-31T06:01:14;11.00;99.90
49777;DHT22;35673;51.482;7.436;2023-03-31T06:03:47;11.00;99.90
49777;DHT22;35673;51.482;7.436;2023-03-31T06:06:13;11.00;99.90
49777;DHT22;35673;51.482;7.436;2023-03-31T06:08:41;11.10;99.90
49777;DHT22;35673;51.482;7.436;2023-03-31T06:11:07;11.10;99.90
49777;DHT22;35673;51.482;7.436;2023-03-31T06:13:34;11.20;99.90
49777;DHT22;35673;51.482;7.436;2023-03-31T06:15:59;11.20;99.90
49777;DHT22;35673;51.482;7.436;2023-03-31T06:18:26;11.10;99.90
49777;DHT22;35673;51.482;7.436;2023-03-31T06:20:52;11.20;99.90
49777;DHT22;35673;51.482;7.436;2023-03-31T06:23:18;11.20;99.90
49777;DHT22;35673;51.482;7.436;2023-03-31T06:25:43;11.20;99.90
49777;DHT22;35673;51.482;7.436;2023-03-31T06:28:09;11.20;99.90
49777;DHT22;35673;51.482;7.436;2023-03-31T06:30:34;11.20;99.90
49777;DHT22;35673;51.482;7.436;2023-03-31T06:33:00;11.20;99.90
49777;DHT22;35673;51.482;7.436;2023-03-31T06:35:26;11.10;99.90
49777;DHT22;35673;51.482;7.436;2023-03-31T06:37:51;11.30;99.90
49777;DHT22;35673;51.482;7.436;2023-03-31T06:40:17;11.20;99.90
49777;DHT22;35673;51.482;7.436;2023-03-31T06:42:42;11.30;99.90
49777;DHT22;35673;51.482;7.436;2023-03-31T06:45:08;11.20;99.90
49777;DHT22;35673;51.482;7.436;2023-03-31T06:47:33;11.20;99.90
49777;DHT22;35673;51.482;7.436;2023-03-31T06:49:59;11.10;99.90
49777;DHT22;35673;51.482;7.436;2023-03-31T06:52:24;11.00;99.90
49777;DHT22;35673;51.482;7.436;2023-03-31T06:54:50;11.10;99.90
49777;DHT22;35673;51.482;7.436;2023-03-31T06:57:15;11.00;99.90
49777;DHT22;35673;51.482;7.436;2023-03-31T06:59:41;11.00;99.90
49777;DHT22;35673;51.482;7.436;2023-03-31T07:02:08;11.00;99.90
49777;DHT22;35673;51.482;7.436;2023-03-31T07:04:33;10.90;99.90
49777;DHT22;35673;51.482;7.436;2023-03-31T07:06:59;10.80;99.90
49777;DHT22;35673;51.482;7.436;2023-03-31T07:09:24;10.80;99.90
49777;DHT22;35673;51.482;7.436;2023-03-31T07:11:50;10.80;99.90
49777;DHT22;35673;51.482;7.436;2023-03-31T07:14:15;10.70;99.90
49777;DHT22;35673;51.482;7.436;2023-03-31T07:16:41;10.80;99.90
49777;DHT22;35673;51.482;7.436;2023-03-31T07:19:06;10.70;99.90
49777;DHT22;35673;51.482;7.436;2023-03-31T07:21:32;10.70;99.90
49777;DHT22;35673;51.482;7.436;2023-03-31T07:23:58;10.60;99.90
49777;DHT22;35673;51.482;7.436;2023-03-31T07:26:23;10.70;99.90
49777;DHT22;35673;51.482;7.436;2023-03-31T07:28:49;10.70;99.90
49777;DHT22;35673;51.482;7.436;2023-03-31T07:31:16;10.70;99.90
49777;DHT22;35673;51.482;7.436;2023-03-31T07:33:41;10.60;99.90
49777;DHT22;35673;51.482;7.436;2023-03-31T07:36:07;10.60;99.90
49777;DHT22;35673;51.482;7.436;2023-03-31T07:38:33;10.50;99.90
49777;DHT22;35673;51.482;7.436;2023-03-31T07:40:58;10.30;99.90
49777;DHT22;35673;51.482;7.436;2023-03-31T07:43:24;10.20;99.90
49777;DHT22;35673;51.482;7.436;2023-03-31T07:45:49;10.10;99.90
49777;DHT22;35673;51.482;7.436;2023-03-31T07:48:15;10.10;99.90
49777;DHT22;35673;51.482;7.436;2023-03-31T07:50:40;10.20;99.90
49777;DHT22;35673;51.482;7.436;2023-03-31T07:53:06;10.20;99.90
49777;DHT22;35673;51.482;7.436;2023-03-31T07:55:31;10.30;99.90
49777;DHT22;35673;51.482;7.436;2023-03-31T07:57:57;10.20;99.90
49777;DHT22;35673;51.482;7.436;2023-03-31T08:00:22;10.30;99.90
49777;DHT22;35673;51.482;7.436;2023-03-31T08:02:48;10.40;99.90
49777;DHT22;35673;51.482;7.436;2023-03-31T08:05:14;10.50;99.90
49777;DHT22;35673;51.482;7.436;2023-03-31T08:07:41;10.50;99.90
49777;DHT22;35673;51.482;7.436;2023-03-31T08:10:09;10.60;99.90
49777;DHT22;35673;51.482;7.436;2023-03-31T08:12:35;10.70;99.90
49777;DHT22;35673;51.482;7.436;2023-03-31T08:15:00;10.70;99.90
49777;DHT22;35673;51.482;7.436;2023-03-31T08:17:26;10.70;99.90
49777;DHT22;35673;51.482;7.436;2023-03-31T08:19:51;10.80;99.90
49777;DHT22;35673;51.482;7.436;2023-03-31T08:22:17;10.80;99.90
49777;DHT22;35673;51.482;7.436;2023-03-31T08:24:43;10.90;99.90
49777;DHT22;35673;51.482;7.436;2023-03-31T08:27:08;10.90;99.90
49777;DHT22;35673;51.482;7.436;2023-03-31T08:29:34;11.10;99.90
49777;DHT22;35673;51.482;7.436;2023-03-31T08:31:59;11.10;99.90
49777;DHT22;35673;51.482;7.436;2023-03-31T08:34:25;11.20;99.90
49777;DHT22;35673;51.482;7.436;2023-03-31T08:36:51;11.30;99.90
49777;DHT22;35673;51.482;7.436;2023-03-31T08:39:17;11.40;99.90
49777;DHT22;35673;51.482;7.436;2023-03-31T08:46:45;11.40;99.90
49777;DHT22;35673;51.482;7.436;2023-03-31T08:49:15;11.50;99.90
49777;DHT22;35673;51.482;7.436;2023-03-31T08:51:46;11.60;99.90
49777;DHT22;35673;51.482;7.436;2023-03-31T08:54:15;11.70;99.90
49777;DHT22;35673;51.482;7.436;2023-03-31T08:56:41;11.80;99.90
49777;DHT22;35673;51.482;7.436;2023-03-31T09:09:51;11.90;99.90
49777;DHT22;35673;51.482;7.436;2023-03-31T09:12:30;12.00;99.90
49777;DHT22;35673;51.482;7.436;2023-03-31T09:14:59;12.00;99.90
49777;DHT22;35673;51.482;7.436;2023-03-31T09:17:26;12.00;99.90
49777;DHT22;35673;51.482;7.436;2023-03-31T09:19:54;12.10;99.90
49777;DHT22;35673;51.482;7.436;2023-03-31T09:22:29;12.00;99.90
49777;DHT22;35673;51.482;7.436;2023-03-31T09:25:00;12.10;99.90
49777;DHT22;35673;51.482;7.436;2023-03-31T09:27:27;12.20;99.90
49777;DHT22;35673;51.482;7.436;2023-03-31T09:30:03;12.30;99.90
49777;DHT22;35673;51.482;7.436;2023-03-31T09:32:34;12.40;99.90
49777;DHT22;35673;51.482;7.436;2023-03-31T09:35:11;12.50;99.90
49777;DHT22;35673;51.482;7.436;2023-03-31T09:37:37;12.50;99.90
49777;DHT22;35673;51.482;7.436;2023-03-31T09:40:03;12.50;99.90
49777;DHT22;35673;51.482;7.436;2023-03-31T09:42:34;12.50;99.90
49777;DHT22;35673;51.482;7.436;2023-03-31T09:45:00;12.70;99.90
49777;DHT22;35673;51.482;7.436;2023-03-31T09:47:33;12.70;99.90
49777;DHT22;35673;51.482;7.436;2023-03-31T09:50:03;12.80;99.90
49777;DHT22;35673;51.482;7.436;2023-03-31T09:52:30;12.90;99.90
49777;DHT22;35673;51.482;7.436;2023-03-31T09:55:42;13.10;99.90
49777;DHT22;35673;51.482;7.436;2023-03-31T09:57:41;13.00;99.90
49777;DHT22;35673;51.482;7.436;2023-03-31T10:02:42;12.90;99.90
49777;DHT22;35673;51.482;7.436;2023-03-31T10:10:41;12.70;99.90
49777;DHT22;35673;51.482;7.436;2023-03-31T10:13:08;12.80;99.90
49777;DHT22;35673;51.482;7.436;2023-03-31T10:15:37;12.80;99.90
49777;DHT22;35673;51.482;7.436;2023-03-31T10:18:03;12.80;99.90
49777;DHT22;35673;51.482;7.436;2023-03-31T10:22:54;13.00;99.90
49777;DHT22;35673;51.482;7.436;2023-03-31T10:28:23;12.90;99.90
49777;DHT22;35673;51.482;7.436;2023-03-31T10:30:50;13.20;99.90
49777;DHT22;35673;51.482;7.436;2023-03-31T10:33:18;13.20;99.90
49777;DHT22;35673;51.482;7.436;2023-03-31T10:35:43;13.30;99.90
49777;DHT22;35673;51.482;7.436;2023-03-31T10:38:13;13.30;99.90
49777;DHT22;35673;51.482;7.436;2023-03-31T10:40:40;13.40;99.90
49777;DHT22;35673;51.482;7.436;2023-03-31T10:43:14;13.40;99.90
49777;DHT22;35673;51.482;7.436;2023-03-31T10:45:47;13.40;99.90
49777;DHT22;35673;51.482;7.436;2023-03-31T10:48:55;13.30;99.90
49777;DHT22;35673;51.482;7.436;2023-03-31T10:51:19;13.00;99.90
49777;DHT22;35673;51.482;7.436;2023-03-31T10:59:03;12.90;99.90
49777;DHT22;35673;51.482;7.436;2023-03-31T11:06:38;13.50;99.90
49777;DHT22;35673;51.482;7.436;2023-03-31T11:11:58;14.30;99.90
49777;DHT22;35673;51.482;7.436;2023-03-31T11:17:04;15.10;99.90
49777;DHT22;35673;51.482;7.436;2023-03-31T11:25:01;16.00;98.60
49777;DHT22;35673;51.482;7.436;2023-03-31T11:32:47;15.80;97.70
49777;DHT22;35673;51.482;7.436;2023-03-31T11:42:51;13.00;99.90
49777;DHT22;35673;51.482;7.436;2023-03-31T11:45:39;11.80;99.90
49777;DHT22;35673;51.482;7.436;2023-03-31T11:48:09;10.80;99.90
49777;DHT22;35673;51.482;7.436;2023-03-31T11:50:39;10.40;99.90
49777;DHT22;35673;51.482;7.436;2023-03-31T11:53:14;10.20;99.90
49777;DHT22;35673;51.482;7.436;2023-03-31T11:55:41;10.10;99.90
49777;DHT22;35673;51.482;7.436;2023-03-31T11:58:10;10.10;99.90
49777;DHT22;35673;51.482;7.436;2023-03-31T12:00:40;10.10;99.90
49777;DHT22;35673;51.482;7.436;2023-03-31T12:03:11;10.20;99.90
49777;DHT22;35673;51.482;7.436;2023-03-31T12:05:42;10.20;99.90
49777;DHT22;35673;51.482;7.436;2023-03-31T12:08:14;10.10;99.90
49777;DHT22;35673;51.482;7.436;2023-03-31T12:10:54;10.30;99.90
49777;DHT22;35673;51.482;7.436;2023-03-31T12:13:30;10.50;99.90
49777;DHT22;35673;51.482;7.436;2023-03-31T12:18:25;11.00;99.90
49777;DHT22;35673;51.482;7.436;2023-03-31T12:20:54;11.50;99.90
49777;DHT22;35673;51.482;7.436;2023-03-31T12:23:26;11.70;99.90
49777;DHT22;35673;51.482;7.436;2023-03-31T12:26:13;12.00;99.90
49777;DHT22;35673;51.482;7.436;2023-03-31T12:28:42;12.50;99.90
49777;DHT22;35673;51.482;7.436;2023-03-31T12:31:10;12.60;99.90
49777;DHT22;35673;51.482;7.436;2023-03-31T12:33:37;12.60;99.90
49777;DHT22;35673;51.482;7.436;2023-03-31T12:39:06;12.40;99.90
49777;DHT22;35673;51.482;7.436;2023-03-31T12:55:06;11.80;99.90
49777;DHT22;35673;51.482;7.436;2023-03-31T12:57:35;12.00;99.90
49777;DHT22;35673;51.482;7.436;2023-03-31T13:02:32;11.90;99.90
49777;DHT22;35673;51.482;7.436;2023-03-31T13:04:57;11.90;99.90
49777;DHT22;35673;51.482;7.436;2023-03-31T13:10:26;11.70;99.90
49777;DHT22;35673;51.482;7.436;2023-03-31T13:15:49;11.70;99.90
49777;DHT22;35673;51.482;7.436;2023-03-31T13:18:17;11.80;99.90
49777;DHT22;35673;51.482;7.436;2023-03-31T13:20:43;12.00;99.90
49777;DHT22;35673;51.482;7.436;2023-03-31T13:33:07;13.20;99.90
49777;DHT22;35673;51.482;7.436;2023-03-31T13:35:34;13.70;99.90
49777;DHT22;35673;51.482;7.436;2023-03-31T13:38:04;14.40;99.90
49777;DHT22;35673;51.482;7.436;2023-03-31T13:40:48;14.90;99.90
49777;DHT22;35673;51.482;7.436;2023-03-31T13:43:39;13.90;99.90
49777;DHT22;35673;51.482;7.436;2023-03-31T13:46:31;13.40;99.90
49777;DHT22;35673;51.482;7.436;2023-03-31T14:07:19;13.70;99.90
49777;DHT22;35673;51.482;7.436;2023-03-31T14:09:46;13.60;99.90
49777;DHT22;35673;51.482;7.436;2023-03-31T14:12:20;13.60;99.90
49777;DHT22;35673;51.482;7.436;2023-03-31T14:14:46;13.50;99.90
49777;DHT22;35673;51.482;7.436;2023-03-31T14:17:11;13.30;99.90
49777;DHT22;35673;51.482;7.436;2023-03-31T14:37:39;15.60;99.90
49777;DHT22;35673;51.482;7.436;2023-03-31T14:40:05;15.00;99.90
49777;DHT22;35673;51.482;7.436;2023-03-31T14:42:36;14.80;99.90
49777;DHT22;35673;51.482;7.436;2023-03-31T14:45:05;14.50;99.90
49777;DHT22;35673;51.482;7.436;2023-03-31T14:47:34;14.70;99.90
49777;DHT22;35673;51.482;7.436;2023-03-31T14:50:15;14.40;99.90
49777;DHT22;35673;51.482;7.436;2023-03-31T14:52:48;14.20;99.90
49777;DHT22;35673;51.482;7.436;2023-03-31T14:55:14;14.00;99.90
49777;DHT22;35673;51.482;7.436;2023-03-31T14:57:40;14.10;99.90
49777;DHT22;35673;51.482;7.436;2023-03-31T15:00:07;14.30;99.90
49777;DHT22;35673;51.482;7.436;2023-03-31T15:02:35;14.60;99.90
49777;DHT22;35673;51.482;7.436;2023-03-31T15:05:05;14.60;99.90
49777;DHT22;35673;51.482;7.436;2023-03-31T15:07:31;14.50;99.90
49777;DHT22;35673;51.482;7.436;2023-03-31T15:09:57;14.50;99.90
49777;DHT22;35673;51.482;7.436;2023-03-31T15:12:22;14.40;99.90
49777;DHT22;35673;51.482;7.436;2023-03-31T15:14:49;14.30;99.90
49777;DHT22;35673;51.482;7.436;2023-03-31T15:17:20;14.40;99.90
49777;DHT22;35673;51.482;7.436;2023-03-31T15:19:50;14.20;99.90
49777;DHT22;35673;51.482;7.436;2023-03-31T15:22:16;14.10;99.90
49777;DHT22;35673;51.482;7.436;2023-03-31T15:24:44;14.10;99.90
49777;DHT22;35673;51.482;7.436;2023-03-31T15:27:15;13.90;99.90
49777;DHT22;35673;51.482;7.436;2023-03-31T15:29:45;14.00;99.90
49777;DHT22;35673;51.482;7.436;2023-03-31T15:34:43;14.00;99.90
49777;DHT22;35673;51.482;7.436;2023-03-31T15:37:10;13.90;99.90
49777;DHT22;35673;51.482;7.436;2023-03-31T15:39:36;13.70;99.90
49777;DHT22;35673;51.482;7.436;2023-03-31T15:42:02;13.50;99.90
49777;DHT22;35673;51.482;7.436;2023-03-31T15:44:36;13.40;99.90
49777;DHT22;35673;51.482;7.436;2023-03-31T15:47:26;13.20;99.90
49777;DHT22;35673;51.482;7.436;2023-03-31T15:49:52;12.80;99.90
49777;DHT22;35673;51.482;7.436;2023-03-31T15:52:29;12.30;99.90
49777;DHT22;35673;51.482;7.436;2023-03-31T15:54:55;11.90;99.90
49777;DHT22;35673;51.482;7.436;2023-03-31T15:57:21;11.30;99.90
49777;DHT22;35673;51.482;7.436;2023-03-31T15:59:54;11.00;99.90
49777;DHT22;35673;51.482;7.436;2023-03-31T16:02:22;10.80;99.90
49777;DHT22;35673;51.482;7.436;2023-03-31T16:04:49;10.70;99.90
49777;DHT22;35673;51.482;7.436;2023-03-31T16:07:17;10.70;99.90
49777;DHT22;35673;51.482;7.436;2023-03-31T16:09:50;10.60;99.90
49777;DHT22;35673;51.482;7.436;2023-03-31T16:12:21;10.60;99.90
49777;DHT22;35673;51.482;7.436;2023-03-31T16:14:53;10.70;99.90
49777;DHT22;35673;51.482;7.436;2023-03-31T16:17:30;11.00;99.90
49777;DHT22;35673;51.482;7.436;2023-03-31T16:19:58;11.10;99.90
49777;DHT22;35673;51.482;7.436;2023-03-31T16:22:28;10.80;99.90
49777;DHT22;35673;51.482;7.436;2023-03-31T16:24:55;10.80;99.90
49777;DHT22;35673;51.482;7.436;2023-03-31T16:27:20;10.90;99.90
49777;DHT22;35673;51.482;7.436;2023-03-31T16:29:46;10.90;99.90
49777;DHT22;35673;51.482;7.436;2023-03-31T16:32:13;11.10;99.90
49777;DHT22;35673;51.482;7.436;2023-03-31T16:34:55;11.30;99.90
49777;DHT22;35673;51.482;7.436;2023-03-31T16:37:21;11.40;99.90
49777;DHT22;35673;51.482;7.436;2023-03-31T16:39:47;11.50;99.90
49777;DHT22;35673;51.482;7.436;2023-03-31T16:42:12;11.50;99.90
49777;DHT22;35673;51.482;7.436;2023-03-31T16:44:38;11.60;99.90
49777;DHT22;35673;51.482;7.436;2023-03-31T16:47:03;11.90;99.90
49777;DHT22;35673;51.482;7.436;2023-03-31T16:49:29;12.00;99.90
49777;DHT22;35673;51.482;7.436;2023-03-31T16:51:54;12.00;99.90
49777;DHT22;35673;51.482;7.436;2023-03-31T16:54:20;12.10;99.90
49777;DHT22;35673;51.482;7.436;2023-03-31T16:56:46;12.20;99.90
49777;DHT22;35673;51.482;7.436;2023-03-31T16:59:12;12.10;99.90
49777;DHT22;35673;51.482;7.436;2023-03-31T17:01:38;12.10;99.90
49777;DHT22;35673;51.482;7.436;2023-03-31T17:04:03;12.00;99.90
49777;DHT22;35673;51.482;7.436;2023-03-31T17:06:29;11.80;99.90
49777;DHT22;35673;51.482;7.436;2023-03-31T17:08:54;11.90;99.90
49777;DHT22;35673;51.482;7.436;2023-03-31T17:11:20;11.70;99.90
49777;DHT22;35673;51.482;7.436;2023-03-31T17:13:45;11.80;99.90
49777;DHT22;35673;51.482;7.436;2023-03-31T17:16:11;11.70;99.90
49777;DHT22;35673;51.482;7.436;2023-03-31T17:18:37;11.80;99.90
49777;DHT22;35673;51.482;7.436;2023-03-31T17:21:04;11.70;99.90
49777;DHT22;35673;51.482;7.436;2023-03-31T17:23:29;11.80;99.90
49777;DHT22;35673;51.482;7.436;2023-03-31T17:25:55;11.70;99.90
49777;DHT22;35673;51.482;7.436;2023-03-31T17:28:20;11.70;99.90
49777;DHT22;35673;51.482;7.436;2023-03-31T17:30:46;11.70;99.90
49777;DHT22;35673;51.482;7.436;2023-03-31T17:33:15;11.60;99.90
49777;DHT22;35673;51.482;7.436;2023-03-31T17:35:41;11.60;99.90
49777;DHT22;35673;51.482;7.436;2023-03-31T17:38:06;11.60;99.90
49777;DHT22;35673;51.482;7.436;2023-03-31T17:40:34;11.70;99.90
49777;DHT22;35673;51.482;7.436;2023-03-31T17:43:00;11.60;99.90
49777;DHT22;35673;51.482;7.436;2023-03-31T17:45:27;11.70;99.90
49777;DHT22;35673;51.482;7.436;2023-03-31T17:47:53;11.70;99.90
49777;DHT22;35673;51.482;7.436;2023-03-31T17:50:19;11.60;99.90
49777;DHT22;35673;51.482;7.436;2023-03-31T17:52:45;11.60;99.90
49777;DHT22;35673;51.482;7.436;2023-03-31T17:55:10;11.50;99.90
49777;DHT22;35673;51.482;7.436;2023-03-31T17:57:36;11.50;99.90
49777;DHT22;35673;51.482;7.436;2023-03-31T18:00:05;11.50;99.90
49777;DHT22;35673;51.482;7.436;2023-03-31T18:02:34;11.60;99.90
49777;DHT22;35673;51.482;7.436;2023-03-31T18:05:00;11.40;99.90
49777;DHT22;35673;51.482;7.436;2023-03-31T18:07:27;11.40;99.90
49777;DHT22;35673;51.482;7.436;2023-03-31T18:09:52;11.30;99.90
49777;DHT22;35673;51.482;7.436;2023-03-31T18:12:18;11.30;99.90
49777;DHT22;35673;51.482;7.436;2023-03-31T18:14:43;11.30;99.90
49777;DHT22;35673;51.482;7.436;2023-03-31T18:17:10;11.30;99.90
49777;DHT22;35673;51.482;7.436;2023-03-31T18:19:39;11.30;99.90
49777;DHT22;35673;51.482;7.436;2023-03-31T18:22:04;11.10;99.90
49777;DHT22;35673;51.482;7.436;2023-03-31T18:24:30;10.90;99.90
49777;DHT22;35673;51.482;7.436;2023-03-31T18:26:56;10.80;99.90